createdAt,value
2018-07-27T00:01:01.943Z,0
2018-07-27T00:02:02.510Z,0
2018-07-27T00:03:03.076Z,0
2018-07-27T00:04:03.629Z,0
2018-07-27T00:05:04.186Z,0
2018-07-27T00:06:04.741Z,0
2018-07-27T00:07:05.298Z,0
2018-07-27T00:08:05.858Z,0
2018-07-27T00:09:06.418Z,0
2018-07-27T00:10:06.971Z,0
2018-07-27T00:11:07.523Z,0
2018-07-27T00:12:08.081Z,0
2018-07-27T00:13:08.633Z,0
2018-07-27T00:14:09.194Z,0
2018-07-27T00:15:09.752Z,0
2018-07-27T00:16:10.306Z,0
2018-07-27T00:17:10.875Z,0
2018-07-27T00:18:11.425Z,0
2018-07-27T00:19:11.977Z,0
2018-07-27T00:20:12.528Z,0
2018-07-27T00:21:13.082Z,0
2018-07-27T00:22:13.640Z,0
2018-07-27T00:23:14.196Z,0
2018-07-27T00:24:14.759Z,0
2018-07-27T00:25:15.311Z,0
2018-07-27T00:26:15.863Z,0
2018-07-27T00:27:16.420Z,0
2018-07-27T00:28:16.981Z,0
2018-07-27T00:29:17.541Z,0
2018-07-27T00:30:18.098Z,0
2018-07-27T00:31:18.656Z,0
2018-07-27T00:32:19.210Z,0
2018-07-27T00:33:19.770Z,0
2018-07-27T00:34:20.321Z,0
2018-07-27T00:35:21.003Z,0
2018-07-27T00:36:21.500Z,0
2018-07-27T00:37:22.150Z,0
2018-07-27T00:38:22.686Z,0
2018-07-27T00:39:23.242Z,0
2018-07-27T00:40:23.801Z,0
2018-07-27T00:41:24.358Z,0
2018-07-27T00:42:25.119Z,0
2018-07-27T00:43:25.668Z,0
2018-07-27T00:44:26.234Z,0
2018-07-27T00:45:26.800Z,0
2018-07-27T00:46:27.387Z,0
2018-07-27T00:47:27.914Z,0
2018-07-27T00:48:28.479Z,0
2018-07-27T00:49:29.035Z,0
2018-07-27T00:50:29.800Z,0
2018-07-27T00:51:30.354Z,0
2018-07-27T00:52:30.912Z,0
2018-07-27T00:53:31.578Z,0
2018-07-27T00:54:32.265Z,0
2018-07-27T00:55:32.827Z,0
2018-07-27T00:56:33.385Z,0
2018-07-27T00:57:33.938Z,0
2018-07-27T00:58:34.496Z,0
2018-07-27T00:59:35.053Z,0
2018-07-27T01:00:35.607Z,0
2018-07-27T01:01:36.159Z,0
2018-07-27T01:02:36.711Z,0
2018-07-27T01:03:37.272Z,0
2018-07-27T01:04:37.827Z,0
2018-07-27T01:05:38.380Z,0
2018-07-27T01:06:38.943Z,0
2018-07-27T01:07:39.493Z,0
2018-07-27T01:08:40.049Z,0
2018-07-27T01:09:40.604Z,0
2018-07-27T01:10:41.157Z,0
2018-07-27T01:11:41.713Z,0
2018-07-27T01:12:42.267Z,0
2018-07-27T01:13:42.814Z,0
2018-07-27T01:14:43.364Z,0
2018-07-27T01:15:43.917Z,0
2018-07-27T01:16:44.474Z,0
2018-07-27T01:17:45.034Z,0
2018-07-27T01:18:45.593Z,0
2018-07-27T01:19:46.140Z,0
2018-07-27T01:20:46.695Z,0
2018-07-27T01:21:47.252Z,0
2018-07-27T01:22:47.812Z,0
2018-07-27T01:23:48.368Z,0
2018-07-27T01:24:48.924Z,0
2018-07-27T01:25:49.483Z,0
2018-07-27T01:26:50.031Z,0
2018-07-27T01:27:50.589Z,0
2018-07-27T01:28:51.144Z,0
2018-07-27T01:29:51.702Z,0
2018-07-27T01:30:52.264Z,0
2018-07-27T01:31:52.819Z,0
2018-07-27T01:32:53.376Z,0
2018-07-27T01:33:53.923Z,0
2018-07-27T01:34:54.485Z,0
2018-07-27T01:35:55.039Z,0
2018-07-27T01:36:55.590Z,0
2018-07-27T01:37:56.150Z,0
2018-07-27T01:38:56.706Z,0
2018-07-27T01:39:57.264Z,0
2018-07-27T01:40:57.830Z,0
2018-07-27T01:41:58.382Z,0
2018-07-27T01:42:58.939Z,0
2018-07-27T01:43:59.498Z,0
2018-07-27T01:45:00.048Z,0
2018-07-27T01:46:00.600Z,0
2018-07-27T01:47:01.157Z,0
2018-07-27T01:48:01.713Z,0
2018-07-27T01:49:02.265Z,0
2018-07-27T01:50:02.823Z,0
2018-07-27T01:51:03.441Z,0
2018-07-27T01:52:03.935Z,0
2018-07-27T01:53:04.489Z,0
2018-07-27T01:54:05.048Z,0
2018-07-27T01:55:05.607Z,0
2018-07-27T01:56:06.164Z,0
2018-07-27T01:57:06.719Z,0
2018-07-27T01:58:07.278Z,0
2018-07-27T01:59:07.834Z,0
2018-07-27T02:00:08.392Z,0
2018-07-27T02:01:08.947Z,0
2018-07-27T02:02:09.500Z,0
2018-07-27T02:03:10.056Z,0
2018-07-27T02:04:10.609Z,0
2018-07-27T02:05:11.166Z,0
2018-07-27T02:06:11.727Z,0
2018-07-27T02:07:12.277Z,0
2018-07-27T02:08:12.837Z,0
2018-07-27T02:09:13.386Z,0
2018-07-27T02:10:13.942Z,0
2018-07-27T02:11:14.499Z,0
2018-07-27T02:12:15.052Z,0
2018-07-27T02:13:15.609Z,0
2018-07-27T02:14:16.166Z,0
2018-07-27T02:15:16.718Z,0
2018-07-27T02:16:17.275Z,0
2018-07-27T02:17:17.834Z,0
2018-07-27T02:18:18.389Z,0
2018-07-27T02:19:18.943Z,0
2018-07-27T02:20:19.500Z,0
2018-07-27T02:21:20.053Z,0
2018-07-27T02:22:20.612Z,0
2018-07-27T02:23:21.171Z,0
2018-07-27T02:24:21.738Z,0
2018-07-27T02:25:22.320Z,0
2018-07-27T02:26:22.852Z,0
2018-07-27T02:27:23.408Z,0
2018-07-27T02:28:23.966Z,0
2018-07-27T02:29:24.520Z,0
2018-07-27T02:30:25.075Z,0
2018-07-27T02:31:25.634Z,0
2018-07-27T02:32:26.187Z,0
2018-07-27T02:33:26.737Z,0
2018-07-27T02:34:27.295Z,0
2018-07-27T02:35:27.850Z,0
2018-07-27T02:36:28.408Z,0
2018-07-27T02:37:28.958Z,0
2018-07-27T02:38:29.518Z,0
2018-07-27T02:39:30.071Z,0
2018-07-27T02:40:30.626Z,0
2018-07-27T02:41:31.182Z,0
2018-07-27T02:42:31.736Z,0
2018-07-27T02:43:32.298Z,0
2018-07-27T02:44:32.851Z,0
2018-07-27T02:45:33.412Z,0
2018-07-27T02:46:33.968Z,0
2018-07-27T02:47:34.525Z,0
2018-07-27T02:48:35.079Z,0
2018-07-27T02:49:35.642Z,0
2018-07-27T02:50:36.198Z,0
2018-07-27T02:51:36.757Z,0
2018-07-27T02:52:37.301Z,0
2018-07-27T02:53:37.861Z,0
2018-07-27T02:54:38.421Z,0
2018-07-27T02:55:38.978Z,0
2018-07-27T02:56:39.544Z,0
2018-07-27T02:57:40.089Z,0
2018-07-27T02:58:40.643Z,0
2018-07-27T02:59:41.199Z,0
2018-07-27T03:00:41.756Z,0
2018-07-27T03:01:42.315Z,0
2018-07-27T03:02:42.874Z,0
2018-07-27T03:03:43.433Z,0
2018-07-27T03:04:43.989Z,0
2018-07-27T03:05:44.546Z,0
2018-07-27T03:06:45.107Z,0
2018-07-27T03:07:45.666Z,0
2018-07-27T03:08:46.218Z,0
2018-07-27T03:09:46.859Z,4
2018-07-27T03:10:47.336Z,4
2018-07-27T03:11:47.889Z,0
2018-07-27T03:12:48.438Z,0
2018-07-27T03:13:48.996Z,4
2018-07-27T03:14:49.554Z,4
2018-07-27T03:15:50.108Z,4
2018-07-27T03:16:50.656Z,4
2018-07-27T03:17:51.211Z,4
2018-07-27T03:18:51.759Z,8
2018-07-27T03:19:52.315Z,8
2018-07-27T03:20:52.870Z,8
2018-07-27T03:21:53.430Z,12
2018-07-27T03:22:53.990Z,12
2018-07-27T03:23:54.548Z,12
2018-07-27T03:24:55.104Z,16
2018-07-27T03:25:55.667Z,20
2018-07-27T03:26:56.213Z,20
2018-07-27T03:27:56.773Z,24
2018-07-27T03:28:57.333Z,28
2018-07-27T03:29:57.893Z,32
2018-07-27T03:30:58.453Z,36
2018-07-27T03:31:59.010Z,40
2018-07-27T03:32:59.562Z,48
2018-07-27T03:34:00.116Z,56
2018-07-27T03:35:00.666Z,64
2018-07-27T03:36:01.223Z,72
2018-07-27T03:37:01.774Z,84
2018-07-27T03:38:02.341Z,88
2018-07-27T03:39:02.902Z,100
2018-07-27T03:40:03.463Z,112
2018-07-27T03:41:04.016Z,128
2018-07-27T03:42:04.601Z,144
2018-07-27T03:43:05.137Z,156
2018-07-27T03:44:05.695Z,176
2018-07-27T03:45:06.255Z,192
2018-07-27T03:46:06.806Z,216
2018-07-27T03:47:07.366Z,236
2018-07-27T03:48:07.921Z,256
2018-07-27T03:49:08.479Z,280
2018-07-27T03:50:09.032Z,304
2018-07-27T03:51:09.588Z,332
2018-07-27T03:52:10.147Z,364
2018-07-27T03:53:10.710Z,392
2018-07-27T03:54:11.263Z,424
2018-07-27T03:55:11.815Z,460
2018-07-27T03:56:12.378Z,496
2018-07-27T03:57:12.944Z,536
2018-07-27T03:58:13.512Z,572
2018-07-27T03:59:14.058Z,612
2018-07-27T04:00:14.611Z,652
2018-07-27T04:01:15.173Z,700
2018-07-27T04:02:15.763Z,744
2018-07-27T04:03:16.290Z,792
2018-07-27T04:04:16.848Z,848
2018-07-27T04:05:17.400Z,896
2018-07-27T04:06:17.961Z,956
2018-07-27T04:07:18.548Z,1012
2018-07-27T04:08:19.091Z,1068
2018-07-27T04:09:19.660Z,1128
2018-07-27T04:10:20.220Z,1184
2018-07-27T04:11:20.779Z,1244
2018-07-27T04:12:21.334Z,1304
2018-07-27T04:13:21.898Z,1364
2018-07-27T04:14:22.462Z,1424
2018-07-27T04:15:23.019Z,1488
2018-07-27T04:16:23.580Z,1548
2018-07-27T04:17:24.145Z,1612
2018-07-27T04:18:24.704Z,1676
2018-07-27T04:19:25.268Z,1740
2018-07-27T04:20:25.833Z,1804
2018-07-27T04:21:26.388Z,1872
2018-07-27T04:22:26.982Z,1940
2018-07-27T04:23:27.508Z,2008
2018-07-27T04:24:28.065Z,2080
2018-07-27T04:25:28.618Z,2148
2018-07-27T04:26:29.184Z,2220
2018-07-27T04:27:29.738Z,2280
2018-07-27T04:28:30.299Z,2348
2018-07-27T04:29:30.860Z,2412
2018-07-27T04:30:31.423Z,2496
2018-07-27T04:31:31.983Z,2568
2018-07-27T04:32:32.543Z,2636
2018-07-27T04:33:33.104Z,2708
2018-07-27T04:34:33.665Z,2780
2018-07-27T04:35:34.227Z,2856
2018-07-27T04:36:34.782Z,2932
2018-07-27T04:37:35.344Z,3012
2018-07-27T04:38:35.901Z,3092
2018-07-27T04:39:36.456Z,3188
2018-07-27T04:40:37.021Z,3464
2018-07-27T04:41:37.575Z,3904
2018-07-27T04:42:38.138Z,4236
2018-07-27T04:43:38.703Z,4392
2018-07-27T04:44:39.265Z,4508
2018-07-27T04:45:39.834Z,4636
2018-07-27T04:46:40.414Z,4772
2018-07-27T04:47:40.964Z,4912
2018-07-27T04:48:41.528Z,5068
2018-07-27T04:49:42.093Z,5220
2018-07-27T04:50:42.663Z,5372
2018-07-27T04:51:43.231Z,5508
2018-07-27T04:52:43.802Z,5632
2018-07-27T04:53:44.364Z,5776
2018-07-27T04:54:44.928Z,5940
2018-07-27T04:55:45.492Z,6048
2018-07-27T04:56:46.060Z,5812
2018-07-27T04:57:46.619Z,5220
2018-07-27T04:58:47.183Z,5332
2018-07-27T04:59:47.751Z,6200
2018-07-27T05:00:48.311Z,6396
2018-07-27T05:01:48.873Z,5536
2018-07-27T05:02:49.440Z,4992
2018-07-27T05:03:50.012Z,5124
2018-07-27T05:04:50.567Z,5056
2018-07-27T05:05:51.131Z,5088
2018-07-27T05:06:51.696Z,5400
2018-07-27T05:07:52.272Z,6580
2018-07-27T05:08:52.841Z,7792
2018-07-27T05:09:53.408Z,8132
2018-07-27T05:10:53.978Z,8344
2018-07-27T05:11:54.615Z,8500
2018-07-27T05:12:55.111Z,8524
2018-07-27T05:13:55.675Z,7540
2018-07-27T05:14:56.248Z,7312
2018-07-27T05:15:56.841Z,8544
2018-07-27T05:16:57.389Z,9420
2018-07-27T05:17:57.961Z,9604
2018-07-27T05:18:58.532Z,9792
2018-07-27T05:19:59.095Z,9968
2018-07-27T05:20:59.666Z,10196
2018-07-27T05:22:00.241Z,10340
2018-07-27T05:23:00.820Z,10488
2018-07-27T05:24:01.389Z,10664
2018-07-27T05:25:01.957Z,10916
2018-07-27T05:26:02.530Z,11124
2018-07-27T05:27:03.105Z,11256
2018-07-27T05:28:03.681Z,11384
2018-07-27T05:29:04.255Z,11532
2018-07-27T05:30:04.831Z,11728
2018-07-27T05:31:05.401Z,11976
2018-07-27T05:32:05.977Z,12184
2018-07-27T05:33:06.553Z,12148
2018-07-27T05:34:07.127Z,10364
2018-07-27T05:35:07.706Z,8068
2018-07-27T05:36:08.276Z,7528
2018-07-27T05:37:08.853Z,9924
2018-07-27T05:38:09.426Z,12492
2018-07-27T05:39:10.005Z,13396
2018-07-27T05:40:10.575Z,13548
2018-07-27T05:41:11.150Z,13812
2018-07-27T05:42:11.726Z,13988
2018-07-27T05:43:12.321Z,14160
2018-07-27T05:44:12.879Z,14264
2018-07-27T05:45:13.472Z,14100
2018-07-27T05:46:14.026Z,13084
2018-07-27T05:47:14.598Z,10440
2018-07-27T05:48:15.158Z,8116
2018-07-27T05:49:15.731Z,9800
2018-07-27T05:50:16.308Z,14384
2018-07-27T05:51:16.882Z,16076
2018-07-27T05:52:17.454Z,16192
2018-07-27T05:53:18.027Z,16232
2018-07-27T05:54:18.602Z,16492
2018-07-27T05:55:19.171Z,16808
2018-07-27T05:56:19.745Z,17312
2018-07-27T05:57:20.312Z,17632
2018-07-27T05:58:20.885Z,17760
2018-07-27T05:59:21.478Z,17888
2018-07-27T06:00:22.036Z,18176
2018-07-27T06:01:22.620Z,18720
2018-07-27T06:02:23.186Z,19136
2018-07-27T06:03:23.761Z,19392
2018-07-27T06:04:24.346Z,19584
2018-07-27T06:05:24.919Z,19712
2018-07-27T06:06:25.575Z,20032
2018-07-27T06:07:26.112Z,20384
2018-07-27T06:08:26.692Z,20768
2018-07-27T06:09:27.267Z,21024
2018-07-27T06:10:27.852Z,21152
2018-07-27T06:11:28.422Z,21184
2018-07-27T06:12:28.993Z,20960
2018-07-27T06:13:29.573Z,16176
2018-07-27T06:14:30.208Z,12116
2018-07-27T06:15:30.728Z,15764
2018-07-27T06:16:31.308Z,21664
2018-07-27T06:17:31.883Z,22976
2018-07-27T06:18:32.456Z,23104
2018-07-27T06:19:33.035Z,23040
2018-07-27T06:20:33.604Z,23136
2018-07-27T06:21:34.172Z,23328
2018-07-27T06:22:34.752Z,23712
2018-07-27T06:23:35.328Z,24160
2018-07-27T06:24:35.900Z,25120
2018-07-27T06:25:36.507Z,25056
2018-07-27T06:26:37.051Z,25248
2018-07-27T06:27:37.630Z,25504
2018-07-27T06:28:38.205Z,25984
2018-07-27T06:29:38.807Z,26368
2018-07-27T06:30:39.361Z,26688
2018-07-27T06:31:39.945Z,26720
2018-07-27T06:32:40.523Z,26880
2018-07-27T06:33:41.103Z,27392
2018-07-27T06:34:41.673Z,28128
2018-07-27T06:35:42.245Z,28768
2018-07-27T06:36:42.827Z,29056
2018-07-27T06:37:43.406Z,29120
2018-07-27T06:38:43.985Z,29344
2018-07-27T06:39:44.577Z,28864
2018-07-27T06:40:45.155Z,28224
2018-07-27T06:41:45.735Z,29952
2018-07-27T06:42:46.307Z,30592
2018-07-27T06:43:46.891Z,31104
2018-07-27T06:44:47.469Z,31200
2018-07-27T06:45:48.043Z,31264
2018-07-27T06:46:48.622Z,31712
2018-07-27T06:47:49.207Z,32064
2018-07-27T06:48:49.782Z,32896
2018-07-27T06:49:50.362Z,33504
2018-07-27T06:50:50.941Z,33792
2018-07-27T06:51:51.533Z,33984
2018-07-27T06:52:52.100Z,34240
2018-07-27T06:53:52.681Z,34336
2018-07-27T06:54:53.259Z,34112
2018-07-27T06:55:53.842Z,34144
2018-07-27T06:56:54.419Z,34496
2018-07-27T06:57:55.003Z,35104
2018-07-27T06:58:55.590Z,34976
2018-07-27T06:59:56.168Z,34784
2018-07-27T07:00:56.746Z,34304
2018-07-27T07:01:57.323Z,34624
2018-07-27T07:02:57.897Z,35392
2018-07-27T07:03:58.477Z,35936
2018-07-27T07:04:59.056Z,36352
2018-07-27T07:05:59.645Z,36704
2018-07-27T07:07:00.223Z,36896
2018-07-27T07:08:00.805Z,36640
2018-07-27T07:09:01.400Z,36544
2018-07-27T07:10:01.958Z,36672
2018-07-27T07:11:02.536Z,36896
2018-07-27T07:12:03.114Z,36480
2018-07-27T07:13:03.699Z,36256
2018-07-27T07:14:04.268Z,36128
2018-07-27T07:15:04.845Z,37120
2018-07-27T07:16:05.420Z,38240
2018-07-27T07:17:05.996Z,38304
2018-07-27T07:18:06.575Z,38336
2018-07-27T07:19:07.150Z,39104
2018-07-27T07:20:07.727Z,39712
2018-07-27T07:21:08.303Z,39456
2018-07-27T07:22:08.877Z,39744
2018-07-27T07:23:09.456Z,40256
2018-07-27T07:24:10.035Z,40128
2018-07-27T07:25:10.709Z,40992
2018-07-27T07:26:11.640Z,41568
2018-07-27T07:27:11.753Z,41728
2018-07-27T07:28:12.333Z,40800
2018-07-27T07:29:12.917Z,40640
2018-07-27T07:30:13.495Z,42560
2018-07-27T07:31:14.074Z,44352
2018-07-27T07:32:14.651Z,44960
2018-07-27T07:33:15.267Z,45728
2018-07-27T07:34:15.804Z,45408
2018-07-27T07:35:16.381Z,44768
2018-07-27T07:36:16.962Z,44960
2018-07-27T07:37:17.542Z,45984
2018-07-27T07:38:18.124Z,47968
2018-07-27T07:39:18.706Z,49408
2018-07-27T07:40:19.282Z,49760
2018-07-27T07:41:19.861Z,50496
2018-07-27T07:42:20.437Z,50496
2018-07-27T07:43:21.084Z,49920
2018-07-27T07:44:21.642Z,48896
2018-07-27T07:45:22.226Z,48704
2018-07-27T07:46:22.803Z,49696
2018-07-27T07:47:23.375Z,51232
2018-07-27T07:48:23.958Z,52864
2018-07-27T07:49:24.599Z,53920
2018-07-27T07:50:25.118Z,53792
2018-07-27T07:51:25.697Z,53184
2018-07-27T07:52:26.276Z,53664
2018-07-27T07:53:26.853Z,55168
2018-07-27T07:54:27.432Z,56032
2018-07-27T07:55:28.012Z,56960
2018-07-27T07:56:28.594Z,57280
2018-07-27T07:57:29.183Z,56608
2018-07-27T07:58:29.773Z,56800
2018-07-27T07:59:30.339Z,58016
2018-07-27T08:00:30.916Z,57280
2018-07-27T08:01:31.494Z,55264
2018-07-27T08:02:32.075Z,53440
2018-07-27T08:03:32.656Z,52704
2018-07-27T08:04:33.235Z,54496
2018-07-27T08:05:33.866Z,57312
2018-07-27T08:06:34.399Z,59680
2018-07-27T08:07:34.979Z,61760
2018-07-27T08:08:35.558Z,61728
2018-07-27T08:09:36.141Z,61152
2018-07-27T08:10:36.720Z,61504
2018-07-27T08:11:37.303Z,63008
2018-07-27T08:12:38.872Z,64064
2018-07-27T08:13:39.456Z,64224
2018-07-27T08:14:40.030Z,63040
2018-07-27T08:15:40.613Z,61952
2018-07-27T08:16:41.192Z,61856
2018-07-27T08:17:41.772Z,62144
2018-07-27T08:18:42.361Z,63904
2018-07-27T08:19:42.936Z,64864
2018-07-27T08:20:43.515Z,65760
2018-07-27T08:21:44.097Z,65312
2018-07-27T08:22:44.690Z,63424
2018-07-27T08:23:45.269Z,62304
2018-07-27T08:24:45.849Z,62560
2018-07-27T08:25:46.425Z,63200
2018-07-27T08:26:47.002Z,63424
2018-07-27T08:27:47.580Z,63520
2018-07-27T08:28:48.161Z,63136
2018-07-27T08:29:48.738Z,62848
2018-07-27T08:30:49.329Z,64160
2018-07-27T08:31:49.915Z,64448
2018-07-27T08:32:50.500Z,64576
2018-07-27T08:33:51.079Z,66176
2018-07-27T08:34:51.658Z,64480
2018-07-27T08:35:52.230Z,65600
2018-07-27T08:36:52.811Z,67776
2018-07-27T08:37:53.387Z,67904
2018-07-27T08:38:53.995Z,67360
2018-07-27T08:39:54.568Z,67104
2018-07-27T08:40:55.146Z,65824
2018-07-27T08:41:55.724Z,64160
2018-07-27T08:42:56.304Z,65280
2018-07-27T08:43:56.882Z,67744
2018-07-27T08:44:57.464Z,70656
2018-07-27T08:45:58.040Z,71552
2018-07-27T08:46:58.625Z,71840
2018-07-27T08:47:59.200Z,70848
2018-07-27T08:48:59.800Z,69760
2018-07-27T08:50:00.399Z,71360
2018-07-27T08:51:00.970Z,73536
2018-07-27T08:52:01.555Z,74272
2018-07-27T08:53:02.137Z,72160
2018-07-27T08:54:02.712Z,73280
2018-07-27T08:55:03.313Z,74464
2018-07-27T08:56:03.892Z,73984
2018-07-27T08:57:04.472Z,77920
2018-07-27T08:58:05.057Z,75904
2018-07-27T08:59:05.634Z,74560
2018-07-27T09:00:06.209Z,73440
2018-07-27T09:01:06.781Z,72800
2018-07-27T09:02:07.364Z,73664
2018-07-27T09:03:07.971Z,74560
2018-07-27T09:04:08.526Z,73824
2018-07-27T09:05:09.101Z,72960
2018-07-27T09:06:09.678Z,70304
2018-07-27T09:07:10.254Z,66560
2018-07-27T09:08:10.837Z,65600
2018-07-27T09:09:11.414Z,66240
2018-07-27T09:10:12.004Z,69632
2018-07-27T09:11:12.572Z,75232
2018-07-27T09:12:13.152Z,73152
2018-07-27T09:13:13.729Z,69888
2018-07-27T09:14:14.312Z,67808
2018-07-27T09:15:14.888Z,69504
2018-07-27T09:16:15.459Z,69984
2018-07-27T09:17:16.043Z,72000
2018-07-27T09:18:16.627Z,75456
2018-07-27T09:19:17.194Z,77408
2018-07-27T09:20:17.795Z,78656
2018-07-27T09:21:18.407Z,78272
2018-07-27T09:22:19.038Z,78240
2018-07-27T09:23:19.615Z,79136
2018-07-27T09:24:20.208Z,79072
2018-07-27T09:25:20.994Z,81248
2018-07-27T09:26:21.321Z,80640
2018-07-27T09:27:21.899Z,81216
2018-07-27T09:28:22.472Z,82624
2018-07-27T09:29:23.047Z,82400
2018-07-27T09:30:23.623Z,83680
2018-07-27T09:31:24.201Z,82624
2018-07-27T09:32:24.781Z,78880
2018-07-27T09:33:25.364Z,78528
2018-07-27T09:34:25.934Z,79840
2018-07-27T09:35:26.521Z,80352
2018-07-27T09:36:27.088Z,81824
2018-07-27T09:37:27.667Z,82048
2018-07-27T09:38:28.255Z,81088
2018-07-27T09:39:28.845Z,79264
2018-07-27T09:40:29.453Z,78688
2018-07-27T09:41:30.022Z,79552
2018-07-27T09:42:30.592Z,81664
2018-07-27T09:43:31.167Z,83744
2018-07-27T09:44:31.745Z,83712
2018-07-27T09:45:32.324Z,84352
2018-07-27T09:46:32.948Z,84480
2018-07-27T09:47:33.479Z,84992
2018-07-27T09:48:34.058Z,85600
2018-07-27T09:49:34.638Z,86176
2018-07-27T09:50:35.212Z,86880
2018-07-27T09:51:35.814Z,89184
2018-07-27T09:52:36.373Z,90080
2018-07-27T09:53:36.945Z,88960
2018-07-27T09:54:37.521Z,86656
2018-07-27T09:55:38.097Z,83552
2018-07-27T09:56:38.682Z,82688
2018-07-27T09:57:39.289Z,84608
2018-07-27T09:58:39.897Z,87328
2018-07-27T09:59:40.481Z,88992
2018-07-27T10:00:41.113Z,89280
2018-07-27T10:01:41.690Z,85952
2018-07-27T10:02:42.259Z,83584
2018-07-27T10:03:42.834Z,83136
2018-07-27T10:04:43.418Z,83712
2018-07-27T10:05:44.016Z,88960
2018-07-27T10:06:44.568Z,92192
2018-07-27T10:07:45.173Z,94624
2018-07-27T10:08:45.738Z,95232
2018-07-27T10:09:46.312Z,91776
2018-07-27T10:10:46.891Z,84416
2018-07-27T10:11:47.468Z,86144
2018-07-27T10:12:48.055Z,90592
2018-07-27T10:13:48.609Z,95264
2018-07-27T10:14:49.189Z,98816
2018-07-27T10:15:49.769Z,99872
2018-07-27T10:16:50.343Z,96640
2018-07-27T10:17:50.930Z,90208
2018-07-27T10:18:51.504Z,92256
2018-07-27T10:19:52.079Z,93280
2018-07-27T10:20:52.655Z,91648
2018-07-27T10:21:53.236Z,96192
2018-07-27T10:22:53.815Z,97504
2018-07-27T10:23:54.393Z,95520
2018-07-27T10:24:54.969Z,97792
2018-07-27T10:25:55.546Z,96544
2018-07-27T10:26:56.119Z,96544
2018-07-27T10:27:56.696Z,98528
2018-07-27T10:28:57.276Z,99712
2018-07-27T10:29:57.865Z,100736
2018-07-27T10:30:58.437Z,99584
2018-07-27T10:31:59.005Z,99648
2018-07-27T10:32:59.585Z,99552
2018-07-27T10:34:00.162Z,100352
2018-07-27T10:35:00.737Z,104960
2018-07-27T10:36:01.312Z,105696
2018-07-27T10:37:01.887Z,105600
2018-07-27T10:38:02.464Z,105984
2018-07-27T10:39:03.043Z,104768
2018-07-27T10:40:03.631Z,101792
2018-07-27T10:41:04.196Z,103168
2018-07-27T10:42:04.775Z,100544
2018-07-27T10:43:05.355Z,98816
2018-07-27T10:44:05.932Z,99648
2018-07-27T10:45:06.518Z,95872
2018-07-27T10:46:07.089Z,98272
2018-07-27T10:47:07.670Z,100544
2018-07-27T10:48:08.252Z,99264
2018-07-27T10:49:08.828Z,97824
2018-07-27T10:50:09.419Z,95808
2018-07-27T10:51:09.990Z,93472
2018-07-27T10:52:10.567Z,97472
2018-07-27T10:53:11.147Z,99584
2018-07-27T10:54:11.729Z,100256
2018-07-27T10:55:12.314Z,100704
2018-07-27T10:56:12.894Z,94688
2018-07-27T10:57:13.475Z,88416
2018-07-27T10:58:14.047Z,85024
2018-07-27T10:59:14.624Z,87520
2018-07-27T11:00:15.204Z,93248
2018-07-27T11:01:15.786Z,99616
2018-07-27T11:02:16.364Z,102496
2018-07-27T11:03:16.940Z,102272
2018-07-27T11:04:17.509Z,95488
2018-07-27T11:05:18.083Z,92320
2018-07-27T11:06:18.663Z,91488
2018-07-27T11:07:19.246Z,93184
2018-07-27T11:08:19.831Z,94752
2018-07-27T11:09:20.413Z,100480
2018-07-27T11:10:20.995Z,102400
2018-07-27T11:11:21.573Z,102368
2018-07-27T11:12:22.152Z,98144
2018-07-27T11:13:22.731Z,93504
2018-07-27T11:14:23.309Z,93952
2018-07-27T11:15:23.887Z,91104
2018-07-27T11:16:24.522Z,95136
2018-07-27T11:17:25.097Z,97600
2018-07-27T11:18:25.611Z,100480
2018-07-27T11:19:26.194Z,102752
2018-07-27T11:20:26.771Z,99456
2018-07-27T11:21:27.346Z,91552
2018-07-27T11:22:27.921Z,88384
2018-07-27T11:23:28.496Z,90496
2018-07-27T11:24:29.073Z,95872
2018-07-27T11:25:29.675Z,100608
2018-07-27T11:26:30.221Z,101024
2018-07-27T11:27:30.805Z,98784
2018-07-27T11:28:31.381Z,97344
2018-07-27T11:29:31.958Z,95360
2018-07-27T11:30:32.538Z,96736
2018-07-27T11:31:33.165Z,96320
2018-07-27T11:32:33.791Z,98592
2018-07-27T11:33:34.379Z,96480
2018-07-27T11:34:34.957Z,93440
2018-07-27T11:35:35.533Z,93920
2018-07-27T11:36:36.113Z,97024
2018-07-27T11:37:36.693Z,98912
2018-07-27T11:38:37.262Z,102208
2018-07-27T11:39:37.842Z,103200
2018-07-27T11:40:38.418Z,102240
2018-07-27T11:41:38.997Z,99840
2018-07-27T11:42:39.655Z,99840
2018-07-27T11:43:40.181Z,100512
2018-07-27T11:44:40.762Z,102784
2018-07-27T11:45:41.344Z,103328
2018-07-27T11:46:41.915Z,102656
2018-07-27T11:47:42.497Z,98944
2018-07-27T11:48:43.075Z,97568
2018-07-27T11:49:43.651Z,97952
2018-07-27T11:50:44.221Z,99008
2018-07-27T11:51:44.803Z,94944
2018-07-27T11:52:45.383Z,95584
2018-07-27T11:53:45.958Z,96512
2018-07-27T11:54:46.536Z,97408
2018-07-27T11:55:47.112Z,98816
2018-07-27T11:56:47.688Z,102560
2018-07-27T11:57:48.273Z,103072
2018-07-27T11:58:48.855Z,100352
2018-07-27T11:59:49.436Z,99584
2018-07-27T12:00:50.032Z,97600
2018-07-27T12:01:50.621Z,92512
2018-07-27T12:02:51.189Z,96096
2018-07-27T12:03:51.775Z,100352
2018-07-27T12:04:52.362Z,103712
2018-07-27T12:05:53.017Z,104448
2018-07-27T12:06:53.551Z,99584
2018-07-27T12:07:54.136Z,97472
2018-07-27T12:08:54.708Z,93312
2018-07-27T12:09:55.289Z,89504
2018-07-27T12:10:55.868Z,91456
2018-07-27T12:11:56.449Z,92864
2018-07-27T12:12:57.030Z,94432
2018-07-27T12:13:57.744Z,97120
2018-07-27T12:14:58.280Z,96768
2018-07-27T12:15:58.755Z,92576
2018-07-27T12:16:59.345Z,89024
2018-07-27T12:17:59.944Z,85056
2018-07-27T12:19:00.501Z,85056
2018-07-27T12:20:01.092Z,87520
2018-07-27T12:21:01.820Z,87040
2018-07-27T12:22:02.271Z,89216
2018-07-27T12:23:02.831Z,90016
2018-07-27T12:24:03.400Z,86688
2018-07-27T12:25:03.997Z,89408
2018-07-27T12:26:04.564Z,86880
2018-07-27T12:27:05.206Z,83584
2018-07-27T12:28:05.723Z,84352
2018-07-27T12:29:06.300Z,88928
2018-07-27T12:30:06.881Z,92192
2018-07-27T12:31:07.465Z,91776
2018-07-27T12:32:08.076Z,93536
2018-07-27T12:33:08.640Z,91904
2018-07-27T12:34:09.221Z,86240
2018-07-27T12:35:09.804Z,84160
2018-07-27T12:36:10.379Z,84960
2018-07-27T12:37:10.963Z,79872
2018-07-27T12:38:11.561Z,80032
2018-07-27T12:39:12.121Z,83520
2018-07-27T12:40:12.704Z,87744
2018-07-27T12:41:13.293Z,92320
2018-07-27T12:42:13.868Z,84800
2018-07-27T12:43:14.460Z,76736
2018-07-27T12:44:15.156Z,75488
2018-07-27T12:45:15.773Z,71008
2018-07-27T12:46:16.349Z,71520
2018-07-27T12:47:16.931Z,75712
2018-07-27T12:48:17.511Z,79648
2018-07-27T12:49:18.133Z,79488
2018-07-27T12:50:18.680Z,81088
2018-07-27T12:51:19.326Z,88960
2018-07-27T12:52:19.828Z,90464
2018-07-27T12:53:20.412Z,90464
2018-07-27T12:54:20.992Z,90688
2018-07-27T12:55:21.569Z,89888
2018-07-27T12:56:22.148Z,89312
2018-07-27T12:57:22.733Z,89984
2018-07-27T12:58:24.304Z,89376
2018-07-27T12:59:24.933Z,88352
2018-07-27T13:00:25.463Z,87904
2018-07-27T13:01:26.045Z,89216
2018-07-27T13:02:26.678Z,95200
2018-07-27T13:03:27.208Z,99744
2018-07-27T13:04:27.788Z,100320
2018-07-27T13:05:28.393Z,98624
2018-07-27T13:06:28.939Z,93088
2018-07-27T13:07:29.517Z,92128
2018-07-27T13:08:30.088Z,88032
2018-07-27T13:09:30.668Z,85504
2018-07-27T13:10:31.258Z,85152
2018-07-27T13:11:31.833Z,90528
2018-07-27T13:12:32.418Z,91808
2018-07-27T13:13:33.005Z,92384
2018-07-27T13:15:34.160Z,91648
2018-07-27T13:16:34.728Z,88320
2018-07-27T13:17:35.322Z,85056
2018-07-27T13:18:35.896Z,83040
2018-07-27T13:19:36.481Z,84128
2018-07-27T13:20:37.042Z,83456
2018-07-27T13:21:37.713Z,82912
2018-07-27T13:22:38.193Z,82464
2018-07-27T13:23:38.770Z,84000
2018-07-27T13:25:04.159Z,85920
2018-07-27T13:25:40.922Z,84384
2018-07-27T13:26:41.495Z,84352
2018-07-27T13:27:42.070Z,86464
2018-07-27T13:28:42.653Z,86400
2018-07-27T13:29:43.236Z,87776
2018-07-27T13:30:43.817Z,85792
2018-07-27T13:31:44.393Z,87456
2018-07-27T13:32:44.963Z,85184